sensor_id;sensor_type;location;lat;lon;timestamp;temperature;humidity
84298;DHT22;74466;51.188;3.242;2023-12-07T00:00:32;2.30;92.70
84298;DHT22;74466;51.188;3.242;2023-12-07T00:02:57;2.30;92.60
84298;DHT22;74466;51.188;3.242;2023-12-07T00:05:25;2.30;92.60
84298;DHT22;74466;51.188;3.242;2023-12-07T00:07:52;2.20;92.50
84298;DHT22;74466;51.188;3.242;2023-12-07T00:10:19;2.10;92.90
84298;DHT22;74466;51.188;3.242;2023-12-07T00:12:45;2.10;92.90
84298;DHT22;74466;51.188;3.242;2023-12-07T00:15:11;2.10;92.90
84298;DHT22;74466;51.188;3.242;2023-12-07T00:17:37;2.20;92.90
84298;DHT22;74466;51.188;3.242;2023-12-07T00:20:03;2.20;92.80
84298;DHT22;74466;51.188;3.242;2023-12-07T00:22:32;2.10;92.80
84298;DHT22;74466;51.188;3.242;2023-12-07T00:24:58;1.90;92.80
84298;DHT22;74466;51.188;3.242;2023-12-07T00:27:24;1.80;93.10
84298;DHT22;74466;51.188;3.242;2023-12-07T00:29:49;1.80;93.40
84298;DHT22;74466;51.188;3.242;2023-12-07T00:32:18;1.80;93.20
84298;DHT22;74466;51.188;3.242;2023-12-07T00:34:47;1.70;93.40
84298;DHT22;74466;51.188;3.242;2023-12-07T00:37:17;1.80;93.50
84298;DHT22;74466;51.188;3.242;2023-12-07T00:39:43;1.90;93.30
84298;DHT22;74466;51.188;3.242;2023-12-07T00:42:09;1.90;93.20
84298;DHT22;74466;51.188;3.242;2023-12-07T00:44:42;2.00;93.20
84298;DHT22;74466;51.188;3.242;2023-12-07T00:47:09;1.90;93.10
84298;DHT22;74466;51.188;3.242;2023-12-07T00:49:40;2.00;93.20
84298;DHT22;74466;51.188;3.242;2023-12-07T00:52:09;2.00;93.20
84298;DHT22;74466;51.188;3.242;2023-12-07T00:54:38;2.00;93.20
84298;DHT22;74466;51.188;3.242;2023-12-07T00:57:07;2.10;93.20
84298;DHT22;74466;51.188;3.242;2023-12-07T00:59:33;2.10;93.20
84298;DHT22;74466;51.188;3.242;2023-12-07T01:02:05;2.20;93.20
84298;DHT22;74466;51.188;3.242;2023-12-07T01:04:31;2.10;93.20
84298;DHT22;74466;51.188;3.242;2023-12-07T01:06:57;2.00;93.30
84298;DHT22;74466;51.188;3.242;2023-12-07T01:09:23;2.20;93.60
84298;DHT22;74466;51.188;3.242;2023-12-07T01:11:49;2.10;93.70
84298;DHT22;74466;51.188;3.242;2023-12-07T01:14:16;2.10;93.70
84298;DHT22;74466;51.188;3.242;2023-12-07T01:16:42;2.10;93.80
84298;DHT22;74466;51.188;3.242;2023-12-07T01:19:08;2.20;93.60
84298;DHT22;74466;51.188;3.242;2023-12-07T01:21:34;2.20;93.60
84298;DHT22;74466;51.188;3.242;2023-12-07T01:24:00;2.20;93.70
84298;DHT22;74466;51.188;3.242;2023-12-07T01:26:25;2.20;93.80
84298;DHT22;74466;51.188;3.242;2023-12-07T01:28:51;2.30;93.90
84298;DHT22;74466;51.188;3.242;2023-12-07T01:31:17;2.20;93.90
84298;DHT22;74466;51.188;3.242;2023-12-07T01:33:43;2.30;94.10
84298;DHT22;74466;51.188;3.242;2023-12-07T01:36:11;2.30;93.80
84298;DHT22;74466;51.188;3.242;2023-12-07T01:38:37;2.20;94.00
84298;DHT22;74466;51.188;3.242;2023-12-07T01:41:03;2.30;94.10
84298;DHT22;74466;51.188;3.242;2023-12-07T01:43:29;2.30;94.00
84298;DHT22;74466;51.188;3.242;2023-12-07T01:45:57;2.40;94.00
84298;DHT22;74466;51.188;3.242;2023-12-07T01:48:24;2.40;94.10
84298;DHT22;74466;51.188;3.242;2023-12-07T01:50:55;2.50;93.90
84298;DHT22;74466;51.188;3.242;2023-12-07T01:53:22;2.50;93.90
84298;DHT22;74466;51.188;3.242;2023-12-07T01:55:49;2.60;93.90
84298;DHT22;74466;51.188;3.242;2023-12-07T01:58:17;2.50;94.10
84298;DHT22;74466;51.188;3.242;2023-12-07T02:00:43;2.50;94.20
84298;DHT22;74466;51.188;3.242;2023-12-07T02:03:10;2.50;94.40
84298;DHT22;74466;51.188;3.242;2023-12-07T02:05:37;2.50;94.40
84298;DHT22;74466;51.188;3.242;2023-12-07T02:08:03;2.50;94.50
84298;DHT22;74466;51.188;3.242;2023-12-07T02:10:30;2.50;94.60
84298;DHT22;74466;51.188;3.242;2023-12-07T02:12:56;2.40;94.90
84298;DHT22;74466;51.188;3.242;2023-12-07T02:15:23;2.50;94.80
84298;DHT22;74466;51.188;3.242;2023-12-07T02:22:54;2.60;94.60
84298;DHT22;74466;51.188;3.242;2023-12-07T02:25:26;2.70;94.60
84298;DHT22;74466;51.188;3.242;2023-12-07T02:27:54;2.80;94.50
84298;DHT22;74466;51.188;3.242;2023-12-07T02:30:19;2.80;94.50
84298;DHT22;74466;51.188;3.242;2023-12-07T02:32:48;2.80;94.70
84298;DHT22;74466;51.188;3.242;2023-12-07T02:35:14;2.90;94.60
84298;DHT22;74466;51.188;3.242;2023-12-07T02:37:51;2.90;94.40
84298;DHT22;74466;51.188;3.242;2023-12-07T02:40:21;2.80;94.60
84298;DHT22;74466;51.188;3.242;2023-12-07T02:42:47;2.90;94.50
84298;DHT22;74466;51.188;3.242;2023-12-07T02:45:15;3.00;94.50
84298;DHT22;74466;51.188;3.242;2023-12-07T02:47:41;3.10;94.20
84298;DHT22;74466;51.188;3.242;2023-12-07T02:50:09;3.10;94.20
84298;DHT22;74466;51.188;3.242;2023-12-07T02:52:35;3.20;94.20
84298;DHT22;74466;51.188;3.242;2023-12-07T02:55:02;3.30;94.20
84298;DHT22;74466;51.188;3.242;2023-12-07T02:57:28;3.40;94.10
84298;DHT22;74466;51.188;3.242;2023-12-07T02:59:55;3.50;93.90
84298;DHT22;74466;51.188;3.242;2023-12-07T03:02:21;3.40;93.90
84298;DHT22;74466;51.188;3.242;2023-12-07T03:04:48;3.50;94.10
84298;DHT22;74466;51.188;3.242;2023-12-07T03:07:14;3.50;94.40
84298;DHT22;74466;51.188;3.242;2023-12-07T03:09:39;3.60;93.80
84298;DHT22;74466;51.188;3.242;2023-12-07T03:12:06;3.50;93.90
84298;DHT22;74466;51.188;3.242;2023-12-07T03:14:33;3.50;94.20
84298;DHT22;74466;51.188;3.242;2023-12-07T03:16:59;3.50;93.90
84298;DHT22;74466;51.188;3.242;2023-12-07T03:19:24;3.50;93.80
84298;DHT22;74466;51.188;3.242;2023-12-07T03:21:50;3.60;93.90
84298;DHT22;74466;51.188;3.242;2023-12-07T03:24:16;3.60;94.10
84298;DHT22;74466;51.188;3.242;2023-12-07T03:26:42;3.50;94.30
84298;DHT22;74466;51.188;3.242;2023-12-07T03:29:07;3.60;94.40
84298;DHT22;74466;51.188;3.242;2023-12-07T03:31:33;3.50;94.50
84298;DHT22;74466;51.188;3.242;2023-12-07T03:33:59;3.50;94.40
84298;DHT22;74466;51.188;3.242;2023-12-07T03:36:26;3.50;94.40
84298;DHT22;74466;51.188;3.242;2023-12-07T03:38:52;3.60;94.40
84298;DHT22;74466;51.188;3.242;2023-12-07T03:41:18;3.60;94.40
84298;DHT22;74466;51.188;3.242;2023-12-07T03:43:44;3.50;94.50
84298;DHT22;74466;51.188;3.242;2023-12-07T03:46:10;3.50;94.60
84298;DHT22;74466;51.188;3.242;2023-12-07T03:48:35;3.50;94.70
84298;DHT22;74466;51.188;3.242;2023-12-07T03:51:01;3.60;94.50
84298;DHT22;74466;51.188;3.242;2023-12-07T03:53:28;3.60;94.70
84298;DHT22;74466;51.188;3.242;2023-12-07T03:55:55;3.60;94.70
84298;DHT22;74466;51.188;3.242;2023-12-07T03:58:20;3.70;94.60
84298;DHT22;74466;51.188;3.242;2023-12-07T04:00:46;3.80;94.50
84298;DHT22;74466;51.188;3.242;2023-12-07T04:03:12;3.80;94.40
84298;DHT22;74466;51.188;3.242;2023-12-07T04:05:38;3.70;94.60
84298;DHT22;74466;51.188;3.242;2023-12-07T04:08:04;3.60;94.60
84298;DHT22;74466;51.188;3.242;2023-12-07T04:10:32;3.60;94.90
84298;DHT22;74466;51.188;3.242;2023-12-07T04:12:58;3.60;94.90
84298;DHT22;74466;51.188;3.242;2023-12-07T04:15:24;3.60;95.00
84298;DHT22;74466;51.188;3.242;2023-12-07T04:17:50;3.70;94.90
84298;DHT22;74466;51.188;3.242;2023-12-07T04:20:16;3.70;94.80
84298;DHT22;74466;51.188;3.242;2023-12-07T04:22:43;3.80;94.80
84298;DHT22;74466;51.188;3.242;2023-12-07T04:25:10;3.90;94.50
84298;DHT22;74466;51.188;3.242;2023-12-07T04:27:36;3.90;94.40
84298;DHT22;74466;51.188;3.242;2023-12-07T04:30:02;3.90;94.50
84298;DHT22;74466;51.188;3.242;2023-12-07T04:32:29;3.80;94.70
84298;DHT22;74466;51.188;3.242;2023-12-07T04:34:55;3.80;94.80
84298;DHT22;74466;51.188;3.242;2023-12-07T04:37:21;3.80;94.80
84298;DHT22;74466;51.188;3.242;2023-12-07T04:39:47;3.80;94.70
84298;DHT22;74466;51.188;3.242;2023-12-07T04:42:12;3.90;94.70
84298;DHT22;74466;51.188;3.242;2023-12-07T04:44:38;3.80;94.70
84298;DHT22;74466;51.188;3.242;2023-12-07T04:47:04;3.80;94.60
84298;DHT22;74466;51.188;3.242;2023-12-07T04:49:30;3.80;94.50
84298;DHT22;74466;51.188;3.242;2023-12-07T04:51:55;3.70;94.60
84298;DHT22;74466;51.188;3.242;2023-12-07T04:54:21;3.70;94.80
84298;DHT22;74466;51.188;3.242;2023-12-07T04:56:47;3.70;94.90
84298;DHT22;74466;51.188;3.242;2023-12-07T04:59:13;3.70;94.60
84298;DHT22;74466;51.188;3.242;2023-12-07T05:01:39;3.80;94.60
84298;DHT22;74466;51.188;3.242;2023-12-07T05:04:05;3.80;94.50
84298;DHT22;74466;51.188;3.242;2023-12-07T05:06:34;3.70;94.60
84298;DHT22;74466;51.188;3.242;2023-12-07T05:09:00;3.70;94.80
84298;DHT22;74466;51.188;3.242;2023-12-07T05:11:26;3.70;94.80
84298;DHT22;74466;51.188;3.242;2023-12-07T05:13:52;3.60;94.80
84298;DHT22;74466;51.188;3.242;2023-12-07T05:16:18;3.60;94.90
84298;DHT22;74466;51.188;3.242;2023-12-07T05:18:43;3.70;95.00
84298;DHT22;74466;51.188;3.242;2023-12-07T05:21:09;3.70;94.80
84298;DHT22;74466;51.188;3.242;2023-12-07T05:23:35;3.80;94.70
84298;DHT22;74466;51.188;3.242;2023-12-07T05:26:01;3.80;94.50
84298;DHT22;74466;51.188;3.242;2023-12-07T05:28:27;3.90;94.40
84298;DHT22;74466;51.188;3.242;2023-12-07T05:30:53;3.90;94.30
84298;DHT22;74466;51.188;3.242;2023-12-07T05:33:19;4.00;94.10
84298;DHT22;74466;51.188;3.242;2023-12-07T05:35:48;3.90;94.10
84298;DHT22;74466;51.188;3.242;2023-12-07T05:38:14;3.90;94.20
84298;DHT22;74466;51.188;3.242;2023-12-07T05:40:39;3.90;94.10
84298;DHT22;74466;51.188;3.242;2023-12-07T05:43:05;3.90;94.00
84298;DHT22;74466;51.188;3.242;2023-12-07T05:45:31;3.90;94.00
84298;DHT22;74466;51.188;3.242;2023-12-07T05:47:56;3.90;94.10
84298;DHT22;74466;51.188;3.242;2023-12-07T05:50:22;3.90;94.00
84298;DHT22;74466;51.188;3.242;2023-12-07T05:52:48;3.80;94.20
84298;DHT22;74466;51.188;3.242;2023-12-07T05:55:14;3.90;94.20
84298;DHT22;74466;51.188;3.242;2023-12-07T05:57:40;3.90;94.10
84298;DHT22;74466;51.188;3.242;2023-12-07T06:00:06;3.80;94.20
84298;DHT22;74466;51.188;3.242;2023-12-07T06:02:36;3.80;94.10
84298;DHT22;74466;51.188;3.242;2023-12-07T06:05:02;3.90;94.20
84298;DHT22;74466;51.188;3.242;2023-12-07T06:07:31;3.90;94.10
84298;DHT22;74466;51.188;3.242;2023-12-07T06:09:56;3.90;94.10
84298;DHT22;74466;51.188;3.242;2023-12-07T06:12:23;4.00;94.10
84298;DHT22;74466;51.188;3.242;2023-12-07T06:14:49;4.10;93.90
84298;DHT22;74466;51.188;3.242;2023-12-07T06:17:16;4.10;93.80
84298;DHT22;74466;51.188;3.242;2023-12-07T06:19:41;4.10;93.70
84298;DHT22;74466;51.188;3.242;2023-12-07T06:22:08;4.20;93.50
84298;DHT22;74466;51.188;3.242;2023-12-07T06:24:34;4.20;93.40
84298;DHT22;74466;51.188;3.242;2023-12-07T06:27:01;4.30;93.40
84298;DHT22;74466;51.188;3.242;2023-12-07T06:29:27;4.40;93.30
84298;DHT22;74466;51.188;3.242;2023-12-07T06:31:54;4.30;93.50
84298;DHT22;74466;51.188;3.242;2023-12-07T06:34:21;4.30;93.50
84298;DHT22;74466;51.188;3.242;2023-12-07T06:36:46;4.30;93.30
84298;DHT22;74466;51.188;3.242;2023-12-07T06:39:13;4.30;93.40
84298;DHT22;74466;51.188;3.242;2023-12-07T06:41:39;4.30;93.30
84298;DHT22;74466;51.188;3.242;2023-12-07T06:44:06;4.30;93.30
84298;DHT22;74466;51.188;3.242;2023-12-07T06:46:32;4.30;93.30
84298;DHT22;74466;51.188;3.242;2023-12-07T06:48:57;4.30;93.20
84298;DHT22;74466;51.188;3.242;2023-12-07T06:51:23;4.40;93.00
84298;DHT22;74466;51.188;3.242;2023-12-07T06:53:49;4.40;93.10
84298;DHT22;74466;51.188;3.242;2023-12-07T06:56:15;4.30;93.00
84298;DHT22;74466;51.188;3.242;2023-12-07T06:58:41;4.20;93.10
84298;DHT22;74466;51.188;3.242;2023-12-07T07:01:06;4.30;93.10
84298;DHT22;74466;51.188;3.242;2023-12-07T07:03:32;4.30;93.10
84298;DHT22;74466;51.188;3.242;2023-12-07T07:05:58;4.30;93.20
84298;DHT22;74466;51.188;3.242;2023-12-07T07:08:25;4.30;93.00
84298;DHT22;74466;51.188;3.242;2023-12-07T07:10:51;4.40;93.10
84298;DHT22;74466;51.188;3.242;2023-12-07T07:13:17;4.40;93.10
84298;DHT22;74466;51.188;3.242;2023-12-07T07:15:45;4.40;93.00
84298;DHT22;74466;51.188;3.242;2023-12-07T07:18:11;4.40;92.80
84298;DHT22;74466;51.188;3.242;2023-12-07T07:20:37;4.40;92.90
84298;DHT22;74466;51.188;3.242;2023-12-07T07:23:03;4.30;93.00
84298;DHT22;74466;51.188;3.242;2023-12-07T07:25:28;4.30;93.20
84298;DHT22;74466;51.188;3.242;2023-12-07T07:27:54;4.30;92.90
84298;DHT22;74466;51.188;3.242;2023-12-07T07:30:21;4.40;93.10
84298;DHT22;74466;51.188;3.242;2023-12-07T07:32:47;4.30;92.90
84298;DHT22;74466;51.188;3.242;2023-12-07T07:35:14;4.30;92.90
84298;DHT22;74466;51.188;3.242;2023-12-07T07:37:40;4.40;93.00
84298;DHT22;74466;51.188;3.242;2023-12-07T07:40:07;4.50;92.80
84298;DHT22;74466;51.188;3.242;2023-12-07T07:42:33;4.50;92.70
84298;DHT22;74466;51.188;3.242;2023-12-07T07:44:59;4.50;92.70
84298;DHT22;74466;51.188;3.242;2023-12-07T07:47:25;4.40;92.50
84298;DHT22;74466;51.188;3.242;2023-12-07T07:49:50;4.40;92.70
84298;DHT22;74466;51.188;3.242;2023-12-07T07:52:16;4.60;92.80
84298;DHT22;74466;51.188;3.242;2023-12-07T07:54:42;4.60;92.70
84298;DHT22;74466;51.188;3.242;2023-12-07T07:57:08;4.60;92.60
84298;DHT22;74466;51.188;3.242;2023-12-07T07:59:36;4.60;92.70
84298;DHT22;74466;51.188;3.242;2023-12-07T08:02:02;4.70;92.60
84298;DHT22;74466;51.188;3.242;2023-12-07T08:04:28;4.60;92.40
84298;DHT22;74466;51.188;3.242;2023-12-07T08:06:53;4.70;92.50
84298;DHT22;74466;51.188;3.242;2023-12-07T08:09:19;4.70;92.40
84298;DHT22;74466;51.188;3.242;2023-12-07T08:11:45;4.80;92.40
84298;DHT22;74466;51.188;3.242;2023-12-07T08:14:10;4.80;92.30
84298;DHT22;74466;51.188;3.242;2023-12-07T08:16:36;4.90;92.40
84298;DHT22;74466;51.188;3.242;2023-12-07T08:19:02;4.90;92.10
84298;DHT22;74466;51.188;3.242;2023-12-07T08:21:28;4.90;92.20
84298;DHT22;74466;51.188;3.242;2023-12-07T08:23:55;4.90;92.20
84298;DHT22;74466;51.188;3.242;2023-12-07T08:26:21;4.90;92.20
84298;DHT22;74466;51.188;3.242;2023-12-07T08:28:47;4.90;91.90
84298;DHT22;74466;51.188;3.242;2023-12-07T08:31:13;4.90;92.00
84298;DHT22;74466;51.188;3.242;2023-12-07T08:33:38;4.80;92.20
84298;DHT22;74466;51.188;3.242;2023-12-07T08:36:05;4.70;92.20
84298;DHT22;74466;51.188;3.242;2023-12-07T08:38:32;4.70;92.30
84298;DHT22;74466;51.188;3.242;2023-12-07T08:40:57;4.70;92.50
84298;DHT22;74466;51.188;3.242;2023-12-07T08:43:24;4.90;92.30
84298;DHT22;74466;51.188;3.242;2023-12-07T08:45:52;4.90;92.40
84298;DHT22;74466;51.188;3.242;2023-12-07T08:48:19;4.90;92.30
84298;DHT22;74466;51.188;3.242;2023-12-07T08:50:46;4.90;92.10
84298;DHT22;74466;51.188;3.242;2023-12-07T08:53:11;4.90;92.00
84298;DHT22;74466;51.188;3.242;2023-12-07T08:55:38;5.00;91.90
84298;DHT22;74466;51.188;3.242;2023-12-07T08:58:03;4.90;91.90
84298;DHT22;74466;51.188;3.242;2023-12-07T09:00:31;4.90;91.90
84298;DHT22;74466;51.188;3.242;2023-12-07T09:02:57;4.90;92.30
84298;DHT22;74466;51.188;3.242;2023-12-07T09:05:23;4.90;92.30
84298;DHT22;74466;51.188;3.242;2023-12-07T09:07:48;4.90;92.20
84298;DHT22;74466;51.188;3.242;2023-12-07T09:10:14;5.00;92.10
84298;DHT22;74466;51.188;3.242;2023-12-07T09:12:40;5.10;92.00
84298;DHT22;74466;51.188;3.242;2023-12-07T09:15:07;5.10;92.00
84298;DHT22;74466;51.188;3.242;2023-12-07T09:17:33;5.00;91.90
84298;DHT22;74466;51.188;3.242;2023-12-07T09:19:59;5.00;92.10
84298;DHT22;74466;51.188;3.242;2023-12-07T09:22:26;5.10;92.00
84298;DHT22;74466;51.188;3.242;2023-12-07T09:24:52;5.20;92.00
84298;DHT22;74466;51.188;3.242;2023-12-07T09:27:17;5.20;91.80
84298;DHT22;74466;51.188;3.242;2023-12-07T09:29:43;5.20;91.70
84298;DHT22;74466;51.188;3.242;2023-12-07T09:32:09;5.30;91.60
84298;DHT22;74466;51.188;3.242;2023-12-07T09:34:34;5.20;91.30
84298;DHT22;74466;51.188;3.242;2023-12-07T09:37:08;5.20;91.80
84298;DHT22;74466;51.188;3.242;2023-12-07T09:39:34;5.30;91.90
84298;DHT22;74466;51.188;3.242;2023-12-07T09:42:00;5.40;91.90
84298;DHT22;74466;51.188;3.242;2023-12-07T09:44:26;5.40;91.60
84298;DHT22;74466;51.188;3.242;2023-12-07T09:46:52;5.30;91.40
84298;DHT22;74466;51.188;3.242;2023-12-07T09:49:18;5.30;91.50
84298;DHT22;74466;51.188;3.242;2023-12-07T09:51:44;5.30;91.70
84298;DHT22;74466;51.188;3.242;2023-12-07T09:54:12;5.40;91.70
84298;DHT22;74466;51.188;3.242;2023-12-07T09:56:38;5.40;91.70
84298;DHT22;74466;51.188;3.242;2023-12-07T09:59:04;5.50;91.50
84298;DHT22;74466;51.188;3.242;2023-12-07T10:01:30;5.50;91.40
84298;DHT22;74466;51.188;3.242;2023-12-07T10:06:44;5.70;91.10
84298;DHT22;74466;51.188;3.242;2023-12-07T10:09:11;5.80;91.20
84298;DHT22;74466;51.188;3.242;2023-12-07T10:11:37;5.80;90.90
84298;DHT22;74466;51.188;3.242;2023-12-07T10:14:05;5.80;90.80
84298;DHT22;74466;51.188;3.242;2023-12-07T10:16:31;5.90;90.70
84298;DHT22;74466;51.188;3.242;2023-12-07T10:19:15;5.80;90.60
84298;DHT22;74466;51.188;3.242;2023-12-07T10:21:44;5.90;90.80
84298;DHT22;74466;51.188;3.242;2023-12-07T10:24:10;5.80;90.60
84298;DHT22;74466;51.188;3.242;2023-12-07T10:26:37;5.60;91.10
84298;DHT22;74466;51.188;3.242;2023-12-07T10:29:06;5.70;91.00
84298;DHT22;74466;51.188;3.242;2023-12-07T10:31:33;5.70;91.20
84298;DHT22;74466;51.188;3.242;2023-12-07T10:33:59;5.70;91.10
84298;DHT22;74466;51.188;3.242;2023-12-07T10:36:26;5.80;91.10
84298;DHT22;74466;51.188;3.242;2023-12-07T10:38:52;5.90;90.80
84298;DHT22;74466;51.188;3.242;2023-12-07T10:41:19;6.00;90.90
84298;DHT22;74466;51.188;3.242;2023-12-07T10:43:51;6.00;90.90
84298;DHT22;74466;51.188;3.242;2023-12-07T10:46:19;6.10;90.60
84298;DHT22;74466;51.188;3.242;2023-12-07T10:48:45;6.10;90.30
84298;DHT22;74466;51.188;3.242;2023-12-07T10:53:58;6.20;90.40
84298;DHT22;74466;51.188;3.242;2023-12-07T10:56:32;6.30;90.10
84298;DHT22;74466;51.188;3.242;2023-12-07T10:59:00;6.40;90.00
84298;DHT22;74466;51.188;3.242;2023-12-07T11:01:26;6.40;90.00
84298;DHT22;74466;51.188;3.242;2023-12-07T11:03:53;6.30;90.10
84298;DHT22;74466;51.188;3.242;2023-12-07T11:06:19;6.30;90.00
84298;DHT22;74466;51.188;3.242;2023-12-07T11:08:51;6.30;89.90
84298;DHT22;74466;51.188;3.242;2023-12-07T11:11:48;6.30;89.60
84298;DHT22;74466;51.188;3.242;2023-12-07T11:14:17;6.40;89.50
84298;DHT22;74466;51.188;3.242;2023-12-07T11:16:45;6.40;89.00
84298;DHT22;74466;51.188;3.242;2023-12-07T11:21:59;6.40;89.10
84298;DHT22;74466;51.188;3.242;2023-12-07T11:24:25;6.40;89.40
84298;DHT22;74466;51.188;3.242;2023-12-07T11:26:58;6.30;89.50
84298;DHT22;74466;51.188;3.242;2023-12-07T11:29:31;6.50;89.60
84298;DHT22;74466;51.188;3.242;2023-12-07T11:32:06;6.60;89.00
84298;DHT22;74466;51.188;3.242;2023-12-07T11:34:38;6.50;88.70
84298;DHT22;74466;51.188;3.242;2023-12-07T11:37:05;6.60;89.60
84298;DHT22;74466;51.188;3.242;2023-12-07T11:39:39;6.50;88.30
84298;DHT22;74466;51.188;3.242;2023-12-07T11:42:11;6.60;88.20
84298;DHT22;74466;51.188;3.242;2023-12-07T11:44:38;6.50;88.30
84298;DHT22;74466;51.188;3.242;2023-12-07T11:47:05;6.60;88.10
84298;DHT22;74466;51.188;3.242;2023-12-07T11:49:31;6.50;88.10
84298;DHT22;74466;51.188;3.242;2023-12-07T11:52:00;6.60;88.10
84298;DHT22;74466;51.188;3.242;2023-12-07T11:54:27;6.60;87.70
84298;DHT22;74466;51.188;3.242;2023-12-07T11:56:54;6.60;87.60
84298;DHT22;74466;51.188;3.242;2023-12-07T11:59:20;6.50;87.60
84298;DHT22;74466;51.188;3.242;2023-12-07T12:01:49;6.50;87.70
84298;DHT22;74466;51.188;3.242;2023-12-07T12:04:15;6.50;88.60
84298;DHT22;74466;51.188;3.242;2023-12-07T12:06:46;6.60;87.70
84298;DHT22;74466;51.188;3.242;2023-12-07T12:09:13;6.70;86.90
84298;DHT22;74466;51.188;3.242;2023-12-07T12:11:44;6.60;86.90
84298;DHT22;74466;51.188;3.242;2023-12-07T12:14:13;6.60;87.00
84298;DHT22;74466;51.188;3.242;2023-12-07T12:16:39;6.70;86.50
84298;DHT22;74466;51.188;3.242;2023-12-07T12:19:05;6.60;86.60
84298;DHT22;74466;51.188;3.242;2023-12-07T12:21:34;6.70;86.30
84298;DHT22;74466;51.188;3.242;2023-12-07T12:24:00;6.60;85.80
84298;DHT22;74466;51.188;3.242;2023-12-07T12:26:26;6.70;86.30
84298;DHT22;74466;51.188;3.242;2023-12-07T12:28:52;6.60;86.50
84298;DHT22;74466;51.188;3.242;2023-12-07T12:31:19;6.60;85.80
84298;DHT22;74466;51.188;3.242;2023-12-07T12:33:44;6.60;86.40
84298;DHT22;74466;51.188;3.242;2023-12-07T12:36:10;6.60;86.80
84298;DHT22;74466;51.188;3.242;2023-12-07T12:38:39;6.70;86.60
84298;DHT22;74466;51.188;3.242;2023-12-07T12:41:05;6.80;85.90
84298;DHT22;74466;51.188;3.242;2023-12-07T12:43:33;6.80;85.50
84298;DHT22;74466;51.188;3.242;2023-12-07T12:45:59;6.70;84.80
84298;DHT22;74466;51.188;3.242;2023-12-07T12:48:25;6.80;85.70
84298;DHT22;74466;51.188;3.242;2023-12-07T12:50:51;6.90;85.10
84298;DHT22;74466;51.188;3.242;2023-12-07T12:53:16;6.80;85.20
84298;DHT22;74466;51.188;3.242;2023-12-07T12:55:42;6.80;85.30
84298;DHT22;74466;51.188;3.242;2023-12-07T12:58:09;6.90;85.80
84298;DHT22;74466;51.188;3.242;2023-12-07T13:00:38;6.90;85.40
84298;DHT22;74466;51.188;3.242;2023-12-07T13:03:05;7.00;84.70
84298;DHT22;74466;51.188;3.242;2023-12-07T13:05:31;7.10;84.40
84298;DHT22;74466;51.188;3.242;2023-12-07T13:07:59;7.10;84.70
84298;DHT22;74466;51.188;3.242;2023-12-07T13:10:27;7.10;84.30
84298;DHT22;74466;51.188;3.242;2023-12-07T13:12:54;7.00;85.00
84298;DHT22;74466;51.188;3.242;2023-12-07T13:15:21;7.10;85.00
84298;DHT22;74466;51.188;3.242;2023-12-07T13:17:46;7.00;84.50
84298;DHT22;74466;51.188;3.242;2023-12-07T13:20:12;7.10;84.30
84298;DHT22;74466;51.188;3.242;2023-12-07T13:22:41;7.00;84.40
84298;DHT22;74466;51.188;3.242;2023-12-07T13:25:09;6.90;84.10
84298;DHT22;74466;51.188;3.242;2023-12-07T13:27:35;6.90;84.90
84298;DHT22;74466;51.188;3.242;2023-12-07T13:30:02;7.00;85.40
84298;DHT22;74466;51.188;3.242;2023-12-07T13:32:32;6.90;84.00
84298;DHT22;74466;51.188;3.242;2023-12-07T13:34:59;6.90;84.40
84298;DHT22;74466;51.188;3.242;2023-12-07T13:37:25;6.80;84.00
84298;DHT22;74466;51.188;3.242;2023-12-07T13:39:50;6.80;83.80
84298;DHT22;74466;51.188;3.242;2023-12-07T13:42:21;6.70;84.70
84298;DHT22;74466;51.188;3.242;2023-12-07T13:44:47;6.60;84.80
84298;DHT22;74466;51.188;3.242;2023-12-07T13:47:16;6.60;84.50
84298;DHT22;74466;51.188;3.242;2023-12-07T13:49:42;6.70;84.20
84298;DHT22;74466;51.188;3.242;2023-12-07T13:52:08;6.60;84.30
84298;DHT22;74466;51.188;3.242;2023-12-07T13:54:35;6.70;84.40
84298;DHT22;74466;51.188;3.242;2023-12-07T13:57:01;6.70;83.90
84298;DHT22;74466;51.188;3.242;2023-12-07T13:59:29;6.80;83.60
84298;DHT22;74466;51.188;3.242;2023-12-07T14:01:54;6.80;83.70
84298;DHT22;74466;51.188;3.242;2023-12-07T14:04:21;6.80;83.10
84298;DHT22;74466;51.188;3.242;2023-12-07T14:06:46;6.80;82.50
84298;DHT22;74466;51.188;3.242;2023-12-07T14:09:12;6.70;83.50
84298;DHT22;74466;51.188;3.242;2023-12-07T14:11:38;6.80;83.00
84298;DHT22;74466;51.188;3.242;2023-12-07T14:14:05;6.80;83.50
84298;DHT22;74466;51.188;3.242;2023-12-07T14:16:30;6.70;82.70
84298;DHT22;74466;51.188;3.242;2023-12-07T14:18:56;6.50;83.20
84298;DHT22;74466;51.188;3.242;2023-12-07T14:21:22;6.60;83.40
84298;DHT22;74466;51.188;3.242;2023-12-07T14:23:49;6.50;83.20
84298;DHT22;74466;51.188;3.242;2023-12-07T14:26:15;6.50;83.60
84298;DHT22;74466;51.188;3.242;2023-12-07T14:28:40;6.60;82.90
84298;DHT22;74466;51.188;3.242;2023-12-07T14:31:07;6.60;82.10
84298;DHT22;74466;51.188;3.242;2023-12-07T14:33:39;6.50;83.30
84298;DHT22;74466;51.188;3.242;2023-12-07T14:36:06;6.40;82.10
84298;DHT22;74466;51.188;3.242;2023-12-07T14:38:32;6.40;82.90
84298;DHT22;74466;51.188;3.242;2023-12-07T14:40:57;6.40;82.60
84298;DHT22;74466;51.188;3.242;2023-12-07T14:43:23;6.40;82.90
84298;DHT22;74466;51.188;3.242;2023-12-07T14:45:49;6.30;82.70
84298;DHT22;74466;51.188;3.242;2023-12-07T14:48:15;6.30;82.40
84298;DHT22;74466;51.188;3.242;2023-12-07T14:50:40;6.30;81.80
84298;DHT22;74466;51.188;3.242;2023-12-07T14:53:06;6.20;82.30
84298;DHT22;74466;51.188;3.242;2023-12-07T14:55:32;6.30;82.30
84298;DHT22;74466;51.188;3.242;2023-12-07T14:57:57;6.30;81.50
84298;DHT22;74466;51.188;3.242;2023-12-07T15:00:23;6.30;81.30
84298;DHT22;74466;51.188;3.242;2023-12-07T15:02:51;6.20;81.20
84298;DHT22;74466;51.188;3.242;2023-12-07T15:05:17;6.20;81.50
84298;DHT22;74466;51.188;3.242;2023-12-07T15:07:43;6.20;81.20
84298;DHT22;74466;51.188;3.242;2023-12-07T15:10:09;6.10;80.70
84298;DHT22;74466;51.188;3.242;2023-12-07T15:12:34;6.10;81.50
84298;DHT22;74466;51.188;3.242;2023-12-07T15:15:00;6.10;82.00
84298;DHT22;74466;51.188;3.242;2023-12-07T15:17:26;6.10;82.10
84298;DHT22;74466;51.188;3.242;2023-12-07T15:19:53;6.10;81.90
84298;DHT22;74466;51.188;3.242;2023-12-07T15:22:19;6.10;81.80
84298;DHT22;74466;51.188;3.242;2023-12-07T15:24:44;6.10;81.40
84298;DHT22;74466;51.188;3.242;2023-12-07T15:27:10;6.10;81.20
84298;DHT22;74466;51.188;3.242;2023-12-07T15:29:36;6.10;82.10
84298;DHT22;74466;51.188;3.242;2023-12-07T15:32:05;6.00;81.80
84298;DHT22;74466;51.188;3.242;2023-12-07T15:34:32;6.00;81.70
84298;DHT22;74466;51.188;3.242;2023-12-07T15:36:58;6.00;81.80
84298;DHT22;74466;51.188;3.242;2023-12-07T15:39:24;6.00;81.80
84298;DHT22;74466;51.188;3.242;2023-12-07T15:41:49;6.10;81.70
84298;DHT22;74466;51.188;3.242;2023-12-07T15:44:15;6.10;81.00
84298;DHT22;74466;51.188;3.242;2023-12-07T15:46:41;6.00;80.10
84298;DHT22;74466;51.188;3.242;2023-12-07T15:49:06;6.00;80.70
84298;DHT22;74466;51.188;3.242;2023-12-07T15:51:32;6.00;80.30
84298;DHT22;74466;51.188;3.242;2023-12-07T15:53:58;6.00;81.40